Аэропорт: Николаев. Николаев

ICAO: UKON

METAR:
2020-10-19 15:00:00
UKON 191500Z 30005MPS 270V340 CAVOK 12/04 Q1023 R04/090075 NOSIG
METAR:
2020-10-19 14:02:00
TAF UKON 191402Z 1915/1924 30006G13MPS 9999 BKN020CB